sensor_id;sensor_type;location;lat;lon;timestamp;P1;durP1;ratioP1;P2;durP2;ratioP2
52396;SDS011;38322;53.108;6.308;2022-12-20T06:02:03;5.47;;;3.50;;
52396;SDS011;38322;53.108;6.308;2022-12-20T06:04:30;3.00;;;2.47;;
52396;SDS011;38322;53.108;6.308;2022-12-20T06:06:56;6.25;;;2.72;;
52396;SDS011;38322;53.108;6.308;2022-12-20T06:09:23;9.43;;;3.22;;
52396;SDS011;38322;53.108;6.308;2022-12-20T06:11:49;5.30;;;3.08;;
52396;SDS011;38322;53.108;6.308;2022-12-20T06:14:15;6.85;;;3.45;;
52396;SDS011;38322;53.108;6.308;2022-12-20T06:16:41;4.65;;;2.42;;
52396;SDS011;38322;53.108;6.308;2022-12-20T06:19:07;8.15;;;2.78;;
52396;SDS011;38322;53.108;6.308;2022-12-20T06:21:33;3.83;;;2.20;;
52396;SDS011;38322;53.108;6.308;2022-12-20T06:23:59;3.80;;;2.28;;
52396;SDS011;38322;53.108;6.308;2022-12-20T06:26:25;2.33;;;2.13;;
52396;SDS011;38322;53.108;6.308;2022-12-20T06:28:51;5.50;;;2.55;;
52396;SDS011;38322;53.108;6.308;2022-12-20T06:31:19;5.93;;;2.53;;
52396;SDS011;38322;53.108;6.308;2022-12-20T06:33:44;4.43;;;2.15;;
52396;SDS011;38322;53.108;6.308;2022-12-20T06:36:10;4.32;;;2.85;;
52396;SDS011;38322;53.108;6.308;2022-12-20T06:38:36;3.03;;;2.03;;
52396;SDS011;38322;53.108;6.308;2022-12-20T06:41:02;4.38;;;2.90;;
52396;SDS011;38322;53.108;6.308;2022-12-20T06:43:28;4.82;;;2.55;;
52396;SDS011;38322;53.108;6.308;2022-12-20T06:45:54;5.18;;;2.47;;
52396;SDS011;38322;53.108;6.308;2022-12-20T06:48:20;2.90;;;2.22;;
52396;SDS011;38322;53.108;6.308;2022-12-20T06:50:47;3.70;;;2.15;;
52396;SDS011;38322;53.108;6.308;2022-12-20T06:53:13;5.93;;;2.63;;
52396;SDS011;38322;53.108;6.308;2022-12-20T06:55:39;4.80;;;3.78;;
52396;SDS011;38322;53.108;6.308;2022-12-20T06:58:05;4.63;;;2.55;;
52396;SDS011;38322;53.108;6.308;2022-12-20T07:00:31;4.97;;;2.97;;
52396;SDS011;38322;53.108;6.308;2022-12-20T07:02:57;4.38;;;3.35;;
52396;SDS011;38322;53.108;6.308;2022-12-20T07:05:23;4.47;;;3.72;;
52396;SDS011;38322;53.108;6.308;2022-12-20T07:07:49;5.35;;;3.50;;
52396;SDS011;38322;53.108;6.308;2022-12-20T07:10:15;4.55;;;3.92;;
52396;SDS011;38322;53.108;6.308;2022-12-20T07:12:41;8.95;;;4.05;;
52396;SDS011;38322;53.108;6.308;2022-12-20T07:15:08;6.07;;;3.72;;
52396;SDS011;38322;53.108;6.308;2022-12-20T07:17:34;7.10;;;4.00;;
52396;SDS011;38322;53.108;6.308;2022-12-20T07:20:00;4.57;;;3.50;;
52396;SDS011;38322;53.108;6.308;2022-12-20T07:22:26;7.88;;;5.03;;
52396;SDS011;38322;53.108;6.308;2022-12-20T07:24:51;7.13;;;4.85;;
52396;SDS011;38322;53.108;6.308;2022-12-20T07:27:17;6.32;;;4.30;;
52396;SDS011;38322;53.108;6.308;2022-12-20T07:29:43;5.75;;;4.25;;
52396;SDS011;38322;53.108;6.308;2022-12-20T07:32:10;9.80;;;5.05;;
52396;SDS011;38322;53.108;6.308;2022-12-20T07:34:37;5.72;;;3.80;;
52396;SDS011;38322;53.108;6.308;2022-12-20T07:37:03;6.32;;;3.90;;
52396;SDS011;38322;53.108;6.308;2022-12-20T07:39:29;6.70;;;4.05;;
52396;SDS011;38322;53.108;6.308;2022-12-20T07:41:55;7.07;;;5.07;;
52396;SDS011;38322;53.108;6.308;2022-12-20T07:44:22;8.85;;;4.93;;
52396;SDS011;38322;53.108;6.308;2022-12-20T07:46:48;7.10;;;5.10;;
52396;SDS011;38322;53.108;6.308;2022-12-20T07:49:14;6.22;;;4.78;;
52396;SDS011;38322;53.108;6.308;2022-12-20T07:51:41;6.18;;;5.22;;
52396;SDS011;38322;53.108;6.308;2022-12-20T07:54:17;6.22;;;5.18;;
52396;SDS011;38322;53.108;6.308;2022-12-20T07:56:47;8.63;;;4.70;;
52396;SDS011;38322;53.108;6.308;2022-12-20T07:59:17;5.40;;;4.68;;
52396;SDS011;38322;53.108;6.308;2022-12-20T08:01:48;7.32;;;4.70;;
52396;SDS011;38322;53.108;6.308;2022-12-20T08:04:15;8.45;;;5.25;;
52396;SDS011;38322;53.108;6.308;2022-12-20T08:06:45;6.72;;;4.18;;
52396;SDS011;38322;53.108;6.308;2022-12-20T08:09:12;7.10;;;4.10;;
52396;SDS011;38322;53.108;6.308;2022-12-20T08:11:40;8.13;;;5.65;;
52396;SDS011;38322;53.108;6.308;2022-12-20T08:14:08;5.00;;;4.47;;
52396;SDS011;38322;53.108;6.308;2022-12-20T08:16:35;6.32;;;4.47;;
52396;SDS011;38322;53.108;6.308;2022-12-20T08:19:01;5.90;;;4.57;;
52396;SDS011;38322;53.108;6.308;2022-12-20T08:21:27;5.63;;;4.82;;
52396;SDS011;38322;53.108;6.308;2022-12-20T08:23:54;8.43;;;6.22;;
52396;SDS011;38322;53.108;6.308;2022-12-20T08:26:21;8.07;;;4.20;;
52396;SDS011;38322;53.108;6.308;2022-12-20T08:28:46;4.63;;;3.90;;
52396;SDS011;38322;53.108;6.308;2022-12-20T08:31:12;7.05;;;3.63;;
52396;SDS011;38322;53.108;6.308;2022-12-20T08:33:39;5.43;;;3.28;;
52396;SDS011;38322;53.108;6.308;2022-12-20T08:36:07;3.90;;;3.45;;
52396;SDS011;38322;53.108;6.308;2022-12-20T08:38:34;4.30;;;3.17;;
52396;SDS011;38322;53.108;6.308;2022-12-20T08:41:02;5.82;;;2.90;;
52396;SDS011;38322;53.108;6.308;2022-12-20T08:43:31;4.55;;;3.15;;
52396;SDS011;38322;53.108;6.308;2022-12-20T08:45:57;4.47;;;3.10;;
52396;SDS011;38322;53.108;6.308;2022-12-20T08:48:23;4.57;;;3.33;;
52396;SDS011;38322;53.108;6.308;2022-12-20T08:50:53;6.85;;;3.40;;
52396;SDS011;38322;53.108;6.308;2022-12-20T08:55:48;5.22;;;3.28;;
52396;SDS011;38322;53.108;6.308;2022-12-20T08:58:14;4.32;;;2.70;;
52396;SDS011;38322;53.108;6.308;2022-12-20T09:00:40;4.32;;;2.58;;
52396;SDS011;38322;53.108;6.308;2022-12-20T09:03:06;7.85;;;2.13;;
52396;SDS011;38322;53.108;6.308;2022-12-20T09:05:34;5.72;;;3.00;;
52396;SDS011;38322;53.108;6.308;2022-12-20T09:08:00;3.65;;;2.90;;
52396;SDS011;38322;53.108;6.308;2022-12-20T09:10:25;4.97;;;2.50;;
52396;SDS011;38322;53.108;6.308;2022-12-20T09:12:51;4.38;;;1.88;;
52396;SDS011;38322;53.108;6.308;2022-12-20T09:15:17;4.05;;;2.17;;
52396;SDS011;38322;53.108;6.308;2022-12-20T09:17:43;2.17;;;1.80;;
52396;SDS011;38322;53.108;6.308;2022-12-20T09:20:09;3.60;;;2.33;;
52396;SDS011;38322;53.108;6.308;2022-12-20T09:22:35;3.33;;;2.28;;
52396;SDS011;38322;53.108;6.308;2022-12-20T09:25:02;4.47;;;2.60;;
52396;SDS011;38322;53.108;6.308;2022-12-20T09:27:28;3.17;;;2.40;;
52396;SDS011;38322;53.108;6.308;2022-12-20T09:29:54;3.63;;;2.17;;
52396;SDS011;38322;53.108;6.308;2022-12-20T09:32:19;3.17;;;2.35;;
52396;SDS011;38322;53.108;6.308;2022-12-20T09:34:46;3.50;;;2.47;;
52396;SDS011;38322;53.108;6.308;2022-12-20T09:37:12;4.18;;;1.70;;
52396;SDS011;38322;53.108;6.308;2022-12-20T09:39:38;5.07;;;2.65;;
52396;SDS011;38322;53.108;6.308;2022-12-20T09:42:06;3.53;;;2.03;;
52396;SDS011;38322;53.108;6.308;2022-12-20T09:44:34;4.60;;;2.38;;
52396;SDS011;38322;53.108;6.308;2022-12-20T09:47:05;3.60;;;2.38;;
52396;SDS011;38322;53.108;6.308;2022-12-20T09:49:39;3.53;;;2.05;;
52396;SDS011;38322;53.108;6.308;2022-12-20T09:57:14;3.55;;;2.15;;
52396;SDS011;38322;53.108;6.308;2022-12-20T10:00:01;3.67;;;2.90;;
52396;SDS011;38322;53.108;6.308;2022-12-20T10:02:33;3.50;;;1.90;;
52396;SDS011;38322;53.108;6.308;2022-12-20T10:05:00;5.07;;;2.38;;
52396;SDS011;38322;53.108;6.308;2022-12-20T10:15:16;4.82;;;2.05;;
52396;SDS011;38322;53.108;6.308;2022-12-20T10:17:49;5.28;;;2.10;;
52396;SDS011;38322;53.108;6.308;2022-12-20T10:20:29;3.72;;;1.95;;
52396;SDS011;38322;53.108;6.308;2022-12-20T10:25:49;4.15;;;2.30;;
52396;SDS011;38322;53.108;6.308;2022-12-20T10:28:17;5.63;;;2.40;;
52396;SDS011;38322;53.108;6.308;2022-12-20T10:30:47;3.00;;;2.03;;
52396;SDS011;38322;53.108;6.308;2022-12-20T10:33:15;5.32;;;3.22;;
52396;SDS011;38322;53.108;6.308;2022-12-20T10:38:11;5.95;;;2.45;;
52396;SDS011;38322;53.108;6.308;2022-12-20T10:40:46;3.55;;;1.98;;
52396;SDS011;38322;53.108;6.308;2022-12-20T10:43:19;3.35;;;2.17;;
52396;SDS011;38322;53.108;6.308;2022-12-20T10:45:57;4.88;;;3.28;;
52396;SDS011;38322;53.108;6.308;2022-12-20T10:48:32;4.82;;;1.77;;
52396;SDS011;38322;53.108;6.308;2022-12-20T10:51:01;4.65;;;2.03;;
52396;SDS011;38322;53.108;6.308;2022-12-20T10:53:34;5.78;;;2.85;;
52396;SDS011;38322;53.108;6.308;2022-12-20T10:56:15;6.22;;;2.35;;
52396;SDS011;38322;53.108;6.308;2022-12-20T10:58:50;3.85;;;2.30;;
52396;SDS011;38322;53.108;6.308;2022-12-20T11:01:18;3.55;;;1.75;;
52396;SDS011;38322;53.108;6.308;2022-12-20T11:03:51;3.00;;;2.03;;
52396;SDS011;38322;53.108;6.308;2022-12-20T11:06:39;2.70;;;1.40;;
52396;SDS011;38322;53.108;6.308;2022-12-20T11:09:27;3.70;;;1.80;;
52396;SDS011;38322;53.108;6.308;2022-12-20T11:11:57;3.80;;;2.35;;
52396;SDS011;38322;53.108;6.308;2022-12-20T11:14:26;3.50;;;2.13;;
52396;SDS011;38322;53.108;6.308;2022-12-20T11:16:54;6.03;;;2.10;;
52396;SDS011;38322;53.108;6.308;2022-12-20T11:22:14;4.28;;;2.20;;
52396;SDS011;38322;53.108;6.308;2022-12-20T11:24:50;5.50;;;2.70;;
52396;SDS011;38322;53.108;6.308;2022-12-20T11:27:31;3.10;;;2.20;;
52396;SDS011;38322;53.108;6.308;2022-12-20T11:34:57;7.00;;;2.83;;
52396;SDS011;38322;53.108;6.308;2022-12-20T11:37:42;4.32;;;2.70;;
52396;SDS011;38322;53.108;6.308;2022-12-20T11:40:19;4.72;;;2.42;;
52396;SDS011;38322;53.108;6.308;2022-12-20T11:42:56;4.13;;;2.30;;
52396;SDS011;38322;53.108;6.308;2022-12-20T11:45:45;8.10;;;2.75;;
52396;SDS011;38322;53.108;6.308;2022-12-20T11:48:17;4.07;;;2.45;;
52396;SDS011;38322;53.108;6.308;2022-12-20T11:50:55;2.53;;;1.88;;
52396;SDS011;38322;53.108;6.308;2022-12-20T11:53:27;5.55;;;2.75;;
52396;SDS011;38322;53.108;6.308;2022-12-20T11:56:06;2.78;;;2.47;;
52396;SDS011;38322;53.108;6.308;2022-12-20T11:58:43;6.15;;;3.47;;
52396;SDS011;38322;53.108;6.308;2022-12-20T12:01:18;6.07;;;3.75;;
52396;SDS011;38322;53.108;6.308;2022-12-20T12:03:58;6.32;;;3.67;;
52396;SDS011;38322;53.108;6.308;2022-12-20T12:06:28;3.88;;;3.47;;
52396;SDS011;38322;53.108;6.308;2022-12-20T12:09:07;7.97;;;4.10;;
52396;SDS011;38322;53.108;6.308;2022-12-20T12:11:45;4.00;;;2.65;;
52396;SDS011;38322;53.108;6.308;2022-12-20T12:14:44;3.17;;;2.88;;
52396;SDS011;38322;53.108;6.308;2022-12-20T12:17:22;4.88;;;3.25;;
52396;SDS011;38322;53.108;6.308;2022-12-20T12:19:52;3.53;;;3.22;;
52396;SDS011;38322;53.108;6.308;2022-12-20T12:22:23;4.43;;;3.28;;
52396;SDS011;38322;53.108;6.308;2022-12-20T12:24:55;8.35;;;3.78;;
52396;SDS011;38322;53.108;6.308;2022-12-20T12:27:25;3.95;;;3.22;;
52396;SDS011;38322;53.108;6.308;2022-12-20T12:29:52;4.47;;;2.63;;
52396;SDS011;38322;53.108;6.308;2022-12-20T12:35:01;3.75;;;3.17;;
52396;SDS011;38322;53.108;6.308;2022-12-20T12:37:48;6.63;;;3.63;;
52396;SDS011;38322;53.108;6.308;2022-12-20T12:40:38;5.57;;;3.97;;
52396;SDS011;38322;53.108;6.308;2022-12-20T12:43:25;5.00;;;3.25;;
52396;SDS011;38322;53.108;6.308;2022-12-20T12:45:57;9.65;;;4.22;;
52396;SDS011;38322;53.108;6.308;2022-12-20T12:51:00;5.75;;;4.18;;
52396;SDS011;38322;53.108;6.308;2022-12-20T12:53:31;4.80;;;3.78;;
52396;SDS011;38322;53.108;6.308;2022-12-20T13:01:53;6.25;;;4.22;;
52396;SDS011;38322;53.108;6.308;2022-12-20T13:04:56;7.65;;;3.97;;
52396;SDS011;38322;53.108;6.308;2022-12-20T13:07:26;7.60;;;4.82;;
52396;SDS011;38322;53.108;6.308;2022-12-20T13:15:01;9.48;;;5.65;;
52396;SDS011;38322;53.108;6.308;2022-12-20T13:17:57;7.32;;;4.75;;
52396;SDS011;38322;53.108;6.308;2022-12-20T13:20:25;4.55;;;3.78;;
52396;SDS011;38322;53.108;6.308;2022-12-20T13:25:38;5.45;;;4.40;;
52396;SDS011;38322;53.108;6.308;2022-12-20T13:30:41;8.07;;;4.18;;
52396;SDS011;38322;53.108;6.308;2022-12-20T13:33:16;7.28;;;5.82;;
52396;SDS011;38322;53.108;6.308;2022-12-20T13:35:54;7.50;;;5.53;;
52396;SDS011;38322;53.108;6.308;2022-12-20T13:41:30;6.03;;;5.18;;
52396;SDS011;38322;53.108;6.308;2022-12-20T13:46:46;9.27;;;6.07;;
52396;SDS011;38322;53.108;6.308;2022-12-20T13:49:24;9.60;;;6.70;;
52396;SDS011;38322;53.108;6.308;2022-12-20T13:52:11;7.57;;;6.03;;
52396;SDS011;38322;53.108;6.308;2022-12-20T13:54:41;5.40;;;4.90;;
52396;SDS011;38322;53.108;6.308;2022-12-20T13:57:13;6.63;;;5.22;;
52396;SDS011;38322;53.108;6.308;2022-12-20T13:59:44;9.07;;;6.85;;
52396;SDS011;38322;53.108;6.308;2022-12-20T14:02:18;7.47;;;6.05;;
52396;SDS011;38322;53.108;6.308;2022-12-20T14:04:49;6.85;;;5.75;;
52396;SDS011;38322;53.108;6.308;2022-12-20T14:07:23;7.80;;;7.00;;
52396;SDS011;38322;53.108;6.308;2022-12-20T14:09:55;9.15;;;6.35;;
52396;SDS011;38322;53.108;6.308;2022-12-20T14:12:24;8.10;;;6.50;;
52396;SDS011;38322;53.108;6.308;2022-12-20T14:14:51;9.98;;;7.45;;
52396;SDS011;38322;53.108;6.308;2022-12-20T14:17:27;7.55;;;6.78;;
52396;SDS011;38322;53.108;6.308;2022-12-20T14:25:14;10.52;;;8.02;;
52396;SDS011;38322;53.108;6.308;2022-12-20T14:27:43;9.30;;;6.95;;
52396;SDS011;38322;53.108;6.308;2022-12-20T14:30:26;8.25;;;7.45;;
52396;SDS011;38322;53.108;6.308;2022-12-20T14:32:57;10.20;;;8.45;;
52396;SDS011;38322;53.108;6.308;2022-12-20T14:35:24;12.27;;;7.95;;
52396;SDS011;38322;53.108;6.308;2022-12-20T14:37:52;12.98;;;8.88;;
52396;SDS011;38322;53.108;6.308;2022-12-20T14:40:22;9.43;;;8.52;;
52396;SDS011;38322;53.108;6.308;2022-12-20T14:42:48;9.43;;;8.43;;
52396;SDS011;38322;53.108;6.308;2022-12-20T14:45:16;9.43;;;8.52;;
52396;SDS011;38322;53.108;6.308;2022-12-20T14:47:50;11.67;;;9.47;;
52396;SDS011;38322;53.108;6.308;2022-12-20T14:50:23;12.52;;;10.10;;
52396;SDS011;38322;53.108;6.308;2022-12-20T14:52:53;11.07;;;9.98;;
52396;SDS011;38322;53.108;6.308;2022-12-20T14:55:22;13.82;;;10.88;;
52396;SDS011;38322;53.108;6.308;2022-12-20T14:57:52;13.55;;;10.93;;
52396;SDS011;38322;53.108;6.308;2022-12-20T15:00:22;12.15;;;10.80;;
52396;SDS011;38322;53.108;6.308;2022-12-20T15:08:10;12.18;;;10.90;;
52396;SDS011;38322;53.108;6.308;2022-12-20T15:10:49;12.95;;;11.50;;
52396;SDS011;38322;53.108;6.308;2022-12-20T15:13:15;15.43;;;11.63;;
52396;SDS011;38322;53.108;6.308;2022-12-20T15:15:42;14.68;;;12.07;;
52396;SDS011;38322;53.108;6.308;2022-12-20T15:18:11;14.20;;;11.45;;
52396;SDS011;38322;53.108;6.308;2022-12-20T15:20:38;15.20;;;13.60;;
52396;SDS011;38322;53.108;6.308;2022-12-20T15:23:08;14.65;;;11.52;;
52396;SDS011;38322;53.108;6.308;2022-12-20T15:25:40;15.30;;;13.32;;
52396;SDS011;38322;53.108;6.308;2022-12-20T15:28:11;12.80;;;11.55;;
52396;SDS011;38322;53.108;6.308;2022-12-20T15:30:38;15.05;;;12.40;;
52396;SDS011;38322;53.108;6.308;2022-12-20T15:33:05;15.15;;;11.02;;
52396;SDS011;38322;53.108;6.308;2022-12-20T15:35:31;14.40;;;12.77;;
52396;SDS011;38322;53.108;6.308;2022-12-20T15:37:57;13.55;;;12.10;;
52396;SDS011;38322;53.108;6.308;2022-12-20T15:40:23;13.18;;;11.68;;
52396;SDS011;38322;53.108;6.308;2022-12-20T15:42:49;15.77;;;12.70;;
52396;SDS011;38322;53.108;6.308;2022-12-20T15:45:16;14.35;;;12.75;;
52396;SDS011;38322;53.108;6.308;2022-12-20T15:47:42;15.52;;;13.93;;
52396;SDS011;38322;53.108;6.308;2022-12-20T15:50:09;15.88;;;14.07;;
52396;SDS011;38322;53.108;6.308;2022-12-20T15:52:36;15.77;;;13.65;;
52396;SDS011;38322;53.108;6.308;2022-12-20T15:55:02;23.88;;;15.55;;
52396;SDS011;38322;53.108;6.308;2022-12-20T15:57:28;19.75;;;14.27;;
52396;SDS011;38322;53.108;6.308;2022-12-20T15:59:54;19.58;;;15.50;;
52396;SDS011;38322;53.108;6.308;2022-12-20T16:02:21;18.85;;;15.25;;
52396;SDS011;38322;53.108;6.308;2022-12-20T16:04:49;20.15;;;15.45;;
52396;SDS011;38322;53.108;6.308;2022-12-20T16:07:16;25.27;;;16.95;;
52396;SDS011;38322;53.108;6.308;2022-12-20T16:09:42;18.15;;;15.90;;
52396;SDS011;38322;53.108;6.308;2022-12-20T16:12:12;22.30;;;17.60;;
52396;SDS011;38322;53.108;6.308;2022-12-20T16:14:40;28.17;;;16.48;;
52396;SDS011;38322;53.108;6.308;2022-12-20T16:17:10;18.63;;;15.25;;
52396;SDS011;38322;53.108;6.308;2022-12-20T16:19:38;22.13;;;17.90;;
52396;SDS011;38322;53.108;6.308;2022-12-20T16:22:04;19.92;;;17.25;;
52396;SDS011;38322;53.108;6.308;2022-12-20T16:24:30;21.10;;;17.48;;
52396;SDS011;38322;53.108;6.308;2022-12-20T16:26:56;21.73;;;17.35;;
52396;SDS011;38322;53.108;6.308;2022-12-20T16:29:22;25.75;;;18.85;;
52396;SDS011;38322;53.108;6.308;2022-12-20T16:31:48;24.88;;;18.13;;
52396;SDS011;38322;53.108;6.308;2022-12-20T16:34:15;22.73;;;18.80;;
52396;SDS011;38322;53.108;6.308;2022-12-20T16:36:42;22.17;;;17.95;;
52396;SDS011;38322;53.108;6.308;2022-12-20T16:39:09;27.83;;;19.42;;
52396;SDS011;38322;53.108;6.308;2022-12-20T16:41:35;21.80;;;18.75;;
52396;SDS011;38322;53.108;6.308;2022-12-20T16:44:03;24.05;;;19.40;;
52396;SDS011;38322;53.108;6.308;2022-12-20T16:46:30;22.30;;;17.98;;
52396;SDS011;38322;53.108;6.308;2022-12-20T16:48:57;24.92;;;20.83;;
52396;SDS011;38322;53.108;6.308;2022-12-20T16:51:31;25.95;;;18.85;;
52396;SDS011;38322;53.108;6.308;2022-12-20T16:54:03;25.95;;;18.48;;
52396;SDS011;38322;53.108;6.308;2022-12-20T16:56:31;30.95;;;18.50;;
52396;SDS011;38322;53.108;6.308;2022-12-20T16:58:57;24.05;;;17.95;;
52396;SDS011;38322;53.108;6.308;2022-12-20T17:01:27;24.08;;;18.13;;
52396;SDS011;38322;53.108;6.308;2022-12-20T17:03:56;26.38;;;19.75;;
52396;SDS011;38322;53.108;6.308;2022-12-20T17:06:22;28.35;;;19.63;;
52396;SDS011;38322;53.108;6.308;2022-12-20T17:08:48;23.63;;;17.98;;
52396;SDS011;38322;53.108;6.308;2022-12-20T17:11:15;27.00;;;20.30;;
52396;SDS011;38322;53.108;6.308;2022-12-20T17:13:49;23.58;;;18.73;;
52396;SDS011;38322;53.108;6.308;2022-12-20T17:16:17;26.95;;;18.70;;
52396;SDS011;38322;53.108;6.308;2022-12-20T17:18:44;24.58;;;18.83;;
52396;SDS011;38322;53.108;6.308;2022-12-20T17:21:19;28.10;;;19.90;;
52396;SDS011;38322;53.108;6.308;2022-12-20T17:23:50;26.02;;;18.65;;
52396;SDS011;38322;53.108;6.308;2022-12-20T17:26:18;25.33;;;19.58;;
52396;SDS011;38322;53.108;6.308;2022-12-20T17:28:48;28.55;;;20.45;;
52396;SDS011;38322;53.108;6.308;2022-12-20T17:31:19;39.53;;;21.98;;
52396;SDS011;38322;53.108;6.308;2022-12-20T17:33:59;30.08;;;18.58;;
52396;SDS011;38322;53.108;6.308;2022-12-20T17:36:26;25.42;;;20.70;;
52396;SDS011;38322;53.108;6.308;2022-12-20T17:38:53;26.88;;;18.75;;
52396;SDS011;38322;53.108;6.308;2022-12-20T17:41:21;29.40;;;20.02;;
52396;SDS011;38322;53.108;6.308;2022-12-20T17:43:48;29.25;;;19.35;;
52396;SDS011;38322;53.108;6.308;2022-12-20T17:46:15;27.30;;;18.60;;
52396;SDS011;38322;53.108;6.308;2022-12-20T17:48:41;28.48;;;20.23;;
52396;SDS011;38322;53.108;6.308;2022-12-20T17:51:14;32.80;;;20.58;;
52396;SDS011;38322;53.108;6.308;2022-12-20T17:53:43;29.05;;;19.50;;
52396;SDS011;38322;53.108;6.308;2022-12-20T17:56:11;33.22;;;20.38;;
52396;SDS011;38322;53.108;6.308;2022-12-20T17:58:39;32.17;;;18.70;;
52396;SDS011;38322;53.108;6.308;2022-12-20T18:01:05;31.15;;;19.10;;
52396;SDS011;38322;53.108;6.308;2022-12-20T18:03:32;34.47;;;21.23;;
52396;SDS011;38322;53.108;6.308;2022-12-20T18:05:58;32.08;;;20.95;;
52396;SDS011;38322;53.108;6.308;2022-12-20T18:08:24;34.42;;;20.45;;
52396;SDS011;38322;53.108;6.308;2022-12-20T18:10:50;31.90;;;19.67;;
52396;SDS011;38322;53.108;6.308;2022-12-20T18:13:15;23.65;;;17.15;;
52396;SDS011;38322;53.108;6.308;2022-12-20T18:15:41;22.40;;;17.30;;
52396;SDS011;38322;53.108;6.308;2022-12-20T18:18:07;25.42;;;16.15;;
52396;SDS011;38322;53.108;6.308;2022-12-20T18:20:33;24.30;;;16.30;;
52396;SDS011;38322;53.108;6.308;2022-12-20T18:22:59;24.25;;;16.73;;
52396;SDS011;38322;53.108;6.308;2022-12-20T18:25:24;22.10;;;15.20;;
52396;SDS011;38322;53.108;6.308;2022-12-20T18:27:50;24.48;;;14.68;;
52396;SDS011;38322;53.108;6.308;2022-12-20T18:30:16;21.45;;;15.02;;
52396;SDS011;38322;53.108;6.308;2022-12-20T18:32:42;23.38;;;16.20;;
52396;SDS011;38322;53.108;6.308;2022-12-20T18:35:08;28.65;;;17.75;;
52396;SDS011;38322;53.108;6.308;2022-12-20T18:37:34;28.52;;;17.98;;
52396;SDS011;38322;53.108;6.308;2022-12-20T18:40:00;24.85;;;15.48;;
52396;SDS011;38322;53.108;6.308;2022-12-20T18:42:26;21.95;;;15.27;;
52396;SDS011;38322;53.108;6.308;2022-12-20T18:44:52;24.35;;;15.75;;
52396;SDS011;38322;53.108;6.308;2022-12-20T18:47:18;23.67;;;14.88;;
52396;SDS011;38322;53.108;6.308;2022-12-20T18:49:44;25.95;;;15.85;;
52396;SDS011;38322;53.108;6.308;2022-12-20T18:52:10;18.92;;;14.10;;
52396;SDS011;38322;53.108;6.308;2022-12-20T18:54:35;22.15;;;14.18;;
52396;SDS011;38322;53.108;6.308;2022-12-20T18:57:01;21.88;;;14.20;;
52396;SDS011;38322;53.108;6.308;2022-12-20T18:59:30;20.73;;;14.68;;
52396;SDS011;38322;53.108;6.308;2022-12-20T19:01:56;18.15;;;14.43;;
52396;SDS011;38322;53.108;6.308;2022-12-20T19:04:21;29.55;;;16.42;;
52396;SDS011;38322;53.108;6.308;2022-12-20T19:06:47;27.80;;;17.40;;
52396;SDS011;38322;53.108;6.308;2022-12-20T19:09:13;25.35;;;15.90;;
52396;SDS011;38322;53.108;6.308;2022-12-20T19:11:39;29.88;;;17.70;;
52396;SDS011;38322;53.108;6.308;2022-12-20T19:14:06;29.33;;;18.40;;
52396;SDS011;38322;53.108;6.308;2022-12-20T19:16:32;35.00;;;19.90;;
52396;SDS011;38322;53.108;6.308;2022-12-20T19:19:00;36.45;;;18.65;;
52396;SDS011;38322;53.108;6.308;2022-12-20T19:21:27;35.92;;;20.92;;
52396;SDS011;38322;53.108;6.308;2022-12-20T19:23:56;35.80;;;20.95;;
52396;SDS011;38322;53.108;6.308;2022-12-20T19:26:24;36.53;;;21.58;;
52396;SDS011;38322;53.108;6.308;2022-12-20T19:28:52;31.02;;;20.10;;
52396;SDS011;38322;53.108;6.308;2022-12-20T19:31:19;40.75;;;20.25;;
52396;SDS011;38322;53.108;6.308;2022-12-20T19:33:48;37.35;;;19.98;;
52396;SDS011;38322;53.108;6.308;2022-12-20T19:36:16;42.30;;;21.17;;
52396;SDS011;38322;53.108;6.308;2022-12-20T19:38:45;36.47;;;22.38;;
52396;SDS011;38322;53.108;6.308;2022-12-20T19:41:14;41.97;;;23.30;;
52396;SDS011;38322;53.108;6.308;2022-12-20T19:43:41;35.92;;;22.75;;
52396;SDS011;38322;53.108;6.308;2022-12-20T19:46:07;44.40;;;21.42;;
52396;SDS011;38322;53.108;6.308;2022-12-20T19:48:34;44.75;;;23.73;;
52396;SDS011;38322;53.108;6.308;2022-12-20T19:51:01;67.00;;;26.88;;
52396;SDS011;38322;53.108;6.308;2022-12-20T19:53:28;42.20;;;24.10;;
52396;SDS011;38322;53.108;6.308;2022-12-20T19:55:54;49.92;;;24.08;;
52396;SDS011;38322;53.108;6.308;2022-12-20T19:58:20;45.85;;;23.10;;
52396;SDS011;38322;53.108;6.308;2022-12-20T20:00:46;47.03;;;25.15;;
52396;SDS011;38322;53.108;6.308;2022-12-20T20:03:13;43.03;;;23.67;;
52396;SDS011;38322;53.108;6.308;2022-12-20T20:05:40;52.83;;;24.27;;
52396;SDS011;38322;53.108;6.308;2022-12-20T20:08:06;48.92;;;26.10;;
52396;SDS011;38322;53.108;6.308;2022-12-20T20:10:32;50.17;;;24.30;;
52396;SDS011;38322;53.108;6.308;2022-12-20T20:12:58;43.67;;;23.98;;
52396;SDS011;38322;53.108;6.308;2022-12-20T20:15:24;54.92;;;25.67;;
52396;SDS011;38322;53.108;6.308;2022-12-20T20:17:50;43.22;;;24.80;;
52396;SDS011;38322;53.108;6.308;2022-12-20T20:20:16;47.35;;;24.45;;
52396;SDS011;38322;53.108;6.308;2022-12-20T20:22:42;55.67;;;24.40;;
52396;SDS011;38322;53.108;6.308;2022-12-20T20:25:08;45.65;;;24.83;;
52396;SDS011;38322;53.108;6.308;2022-12-20T20:27:34;48.47;;;25.52;;
52396;SDS011;38322;53.108;6.308;2022-12-20T20:30:01;53.42;;;25.20;;
52396;SDS011;38322;53.108;6.308;2022-12-20T20:32:27;49.92;;;24.35;;
52396;SDS011;38322;53.108;6.308;2022-12-20T20:34:53;55.53;;;26.38;;
52396;SDS011;38322;53.108;6.308;2022-12-20T20:37:19;46.05;;;24.15;;
52396;SDS011;38322;53.108;6.308;2022-12-20T20:39:45;54.28;;;27.20;;
52396;SDS011;38322;53.108;6.308;2022-12-20T20:42:11;42.30;;;22.25;;
52396;SDS011;38322;53.108;6.308;2022-12-20T20:44:38;36.00;;;22.75;;
52396;SDS011;38322;53.108;6.308;2022-12-20T20:47:03;44.40;;;23.92;;
52396;SDS011;38322;53.108;6.308;2022-12-20T20:49:29;55.22;;;25.42;;
52396;SDS011;38322;53.108;6.308;2022-12-20T20:51:55;54.10;;;24.77;;
52396;SDS011;38322;53.108;6.308;2022-12-20T20:54:21;45.67;;;24.08;;
52396;SDS011;38322;53.108;6.308;2022-12-20T20:56:47;52.88;;;26.15;;
52396;SDS011;38322;53.108;6.308;2022-12-20T20:59:13;43.03;;;23.85;;
